createdAt,value
2019-03-11T00:01:29.185Z,3.60
2019-03-11T00:03:59.526Z,3.60
2019-03-11T00:06:28.719Z,3.60
2019-03-11T00:08:57.952Z,3.50
2019-03-11T00:11:27.252Z,3.50
2019-03-11T00:13:56.507Z,3.40
2019-03-11T00:16:25.768Z,3.40
2019-03-11T00:18:55.084Z,3.30
2019-03-11T00:21:24.310Z,3.30
2019-03-11T00:23:53.583Z,3.40
2019-03-11T00:26:22.812Z,3.40
2019-03-11T00:28:52.076Z,3.50
2019-03-11T00:31:21.319Z,3.60
2019-03-11T00:33:50.591Z,3.60
2019-03-11T00:36:20.115Z,3.70
2019-03-11T00:38:49.327Z,3.80
2019-03-11T00:41:18.564Z,3.80
2019-03-11T00:43:47.930Z,3.90
2019-03-11T00:46:17.165Z,3.90
2019-03-11T00:48:46.431Z,3.90
2019-03-11T00:51:15.663Z,3.90
2019-03-11T00:53:44.943Z,3.90
2019-03-11T00:56:14.164Z,4.00
2019-03-11T00:58:43.433Z,4.00
2019-03-11T01:01:12.735Z,4.10
2019-03-11T01:03:42.091Z,4.10
2019-03-11T01:06:11.248Z,4.20
2019-03-11T01:08:40.500Z,4.20
2019-03-11T01:11:09.747Z,4.20
2019-03-11T01:13:38.988Z,4.20
2019-03-11T01:16:08.173Z,4.20
2019-03-11T01:18:37.496Z,4.20
2019-03-11T01:21:06.758Z,4.20
2019-03-11T01:23:35.985Z,4.30
2019-03-11T01:26:05.329Z,4.30
2019-03-11T01:28:34.552Z,4.30
2019-03-11T01:31:03.802Z,4.20
2019-03-11T01:33:32.971Z,4.20
2019-03-11T01:36:02.335Z,4.10
2019-03-11T01:38:31.563Z,4.20
2019-03-11T01:41:00.851Z,4.10
2019-03-11T01:43:30.075Z,4.10
2019-03-11T01:45:59.318Z,4.10
2019-03-11T01:48:28.555Z,4.00
2019-03-11T01:50:58.002Z,4.00
2019-03-11T01:53:27.235Z,4.00
2019-03-11T01:55:56.554Z,3.90
2019-03-11T01:58:25.733Z,3.90
2019-03-11T02:00:54.928Z,3.90
2019-03-11T02:03:24.223Z,3.80
2019-03-11T02:05:53.400Z,3.80
2019-03-11T02:08:22.635Z,3.90
2019-03-11T02:10:52.095Z,3.90
2019-03-11T02:13:21.330Z,3.80
2019-03-11T02:15:50.603Z,3.90
2019-03-11T02:18:19.859Z,3.90
2019-03-11T02:20:49.120Z,3.90
2019-03-11T02:23:18.410Z,3.80
2019-03-11T02:25:47.676Z,3.70
2019-03-11T02:28:16.907Z,3.80
2019-03-11T02:30:46.156Z,3.70
2019-03-11T02:33:15.385Z,3.70
2019-03-11T02:35:44.667Z,3.70
2019-03-11T02:38:13.880Z,3.70
2019-03-11T02:40:43.065Z,3.60
2019-03-11T02:43:12.364Z,3.60
2019-03-11T02:45:41.629Z,3.60
2019-03-11T02:48:10.948Z,3.50
2019-03-11T02:50:40.180Z,3.50
2019-03-11T02:53:09.507Z,3.50
2019-03-11T02:55:38.755Z,3.50
2019-03-11T02:58:08.091Z,3.50
2019-03-11T03:00:37.520Z,3.50
2019-03-11T03:03:24.404Z,3.50
2019-03-11T03:05:56.979Z,3.50
2019-03-11T03:08:26.252Z,3.50
2019-03-11T03:10:55.421Z,3.50
2019-03-11T03:13:24.771Z,3.50
2019-03-11T03:15:53.995Z,3.50
2019-03-11T03:18:23.241Z,3.60
2019-03-11T03:20:52.548Z,3.60
2019-03-11T03:23:21.802Z,3.50
2019-03-11T03:25:51.018Z,3.60
2019-03-11T03:28:20.261Z,3.60
2019-03-11T03:30:50.530Z,3.60
2019-03-11T03:33:19.792Z,3.50
2019-03-11T03:35:49.042Z,3.50
2019-03-11T03:38:29.496Z,3.50
2019-03-11T03:40:49.380Z,3.60
2019-03-11T03:43:18.610Z,3.60
2019-03-11T03:45:48.067Z,3.60
2019-03-11T03:48:17.363Z,3.70
2019-03-11T03:50:46.830Z,3.70
2019-03-11T03:53:16.164Z,3.70
2019-03-11T03:55:45.392Z,3.80
2019-03-11T03:58:14.732Z,3.80
2019-03-11T04:00:43.934Z,3.80
2019-03-11T04:03:13.272Z,3.80
2019-03-11T04:05:42.533Z,3.80
2019-03-11T04:08:11.876Z,3.80
2019-03-11T04:10:41.086Z,3.90
2019-03-11T04:13:10.330Z,3.80
2019-03-11T04:15:39.577Z,3.80
2019-03-11T04:18:09.997Z,3.80
2019-03-11T04:20:39.290Z,3.80
2019-03-11T04:23:08.526Z,3.80
2019-03-11T04:25:37.973Z,3.80
2019-03-11T04:28:07.266Z,3.80
2019-03-11T04:30:36.532Z,3.80
2019-03-11T04:33:05.781Z,3.80
2019-03-11T04:35:35.048Z,3.70
2019-03-11T04:38:04.195Z,3.70
2019-03-11T04:40:33.378Z,3.60
2019-03-11T04:43:02.615Z,3.50
2019-03-11T04:45:31.871Z,3.50
2019-03-11T04:48:01.115Z,3.50
2019-03-11T04:50:30.359Z,3.50
2019-03-11T04:52:59.583Z,3.50
2019-03-11T04:55:28.842Z,3.50
2019-03-11T04:57:57.995Z,3.50
2019-03-11T05:00:28.567Z,3.40
2019-03-11T05:02:57.737Z,3.50
2019-03-11T05:05:27.064Z,3.50
2019-03-11T05:07:56.378Z,3.50
2019-03-11T05:10:25.623Z,3.50
2019-03-11T05:12:54.922Z,3.50
2019-03-11T05:15:24.184Z,3.40
2019-03-11T05:17:53.419Z,3.40
2019-03-11T05:20:23.063Z,3.40
2019-03-11T05:22:54.751Z,3.30
2019-03-11T05:25:23.275Z,3.30
2019-03-11T05:27:52.503Z,3.20
2019-03-11T05:30:21.750Z,3.20
2019-03-11T05:32:50.999Z,3.20
2019-03-11T05:35:20.176Z,3.20
2019-03-11T05:37:49.362Z,3.10
2019-03-11T05:40:18.535Z,3.10
2019-03-11T05:42:47.852Z,3.00
2019-03-11T05:45:17.286Z,3.00
2019-03-11T05:47:46.656Z,3.00
2019-03-11T05:50:15.999Z,3.00
2019-03-11T05:52:45.273Z,3.00
2019-03-11T05:55:16.178Z,3.10
2019-03-11T05:57:45.536Z,3.10
2019-03-11T06:00:19.817Z,3.10
2019-03-11T06:02:49.067Z,3.10
2019-03-11T06:05:18.471Z,3.00
2019-03-11T06:07:47.803Z,3.00
2019-03-11T06:10:17.131Z,3.00
2019-03-11T06:12:46.316Z,3.00
2019-03-11T06:15:16.123Z,3.00
2019-03-11T06:17:45.481Z,3.10
2019-03-11T06:20:26.279Z,3.10
2019-03-11T06:22:55.780Z,3.10
2019-03-11T06:25:25.035Z,3.10
2019-03-11T06:27:54.384Z,3.10
2019-03-11T06:30:23.612Z,3.10
2019-03-11T06:32:52.947Z,3.10
2019-03-11T06:35:22.123Z,3.00
2019-03-11T06:37:51.359Z,3.00
2019-03-11T06:40:20.556Z,3.00
2019-03-11T06:42:49.787Z,3.10
2019-03-11T06:45:18.987Z,3.20
2019-03-11T06:47:48.315Z,3.30
2019-03-11T06:50:17.585Z,3.30
2019-03-11T06:52:46.830Z,3.30
2019-03-11T06:55:16.161Z,3.40
2019-03-11T06:57:45.336Z,3.40
2019-03-11T07:00:15.414Z,3.50
2019-03-11T07:02:44.647Z,3.50
2019-03-11T07:05:19.960Z,3.50
2019-03-11T07:07:45.047Z,3.50
2019-03-11T07:10:14.461Z,3.40
2019-03-11T07:12:43.627Z,3.40
2019-03-11T07:15:13.175Z,3.30
2019-03-11T07:17:42.399Z,3.40
2019-03-11T07:20:12.092Z,3.40
2019-03-11T07:22:41.256Z,3.40
2019-03-11T07:25:10.607Z,3.50
2019-03-11T07:27:39.835Z,3.80
2019-03-11T07:30:10.321Z,3.90
2019-03-11T07:32:39.599Z,4.10
2019-03-11T07:35:09.070Z,4.30
2019-03-11T07:37:38.515Z,4.40
2019-03-11T07:40:08.041Z,4.30
2019-03-11T07:42:37.211Z,4.30
2019-03-11T07:45:06.589Z,4.30
2019-03-11T07:47:35.912Z,4.50
2019-03-11T07:50:05.776Z,4.60
2019-03-11T07:52:34.967Z,4.70
2019-03-11T07:55:04.674Z,4.80
2019-03-11T07:57:33.902Z,4.70
2019-03-11T08:00:03.142Z,4.50
2019-03-11T08:02:32.325Z,4.20
2019-03-11T08:05:01.475Z,4.00
2019-03-11T08:07:30.658Z,3.90
2019-03-11T08:09:59.875Z,3.70
2019-03-11T08:12:29.125Z,3.60
2019-03-11T08:14:58.275Z,3.60
2019-03-11T08:17:27.539Z,3.60
2019-03-11T08:19:56.715Z,3.60
2019-03-11T08:22:25.975Z,3.60
2019-03-11T08:24:55.205Z,3.60
2019-03-11T08:27:24.430Z,3.60
2019-03-11T08:29:53.675Z,3.60
2019-03-11T08:32:22.927Z,3.60
2019-03-11T08:34:52.078Z,3.70
2019-03-11T08:37:21.299Z,3.60
2019-03-11T08:39:50.523Z,3.60
2019-03-11T08:42:19.675Z,3.60
2019-03-11T08:44:48.848Z,3.70
2019-03-11T08:47:18.006Z,3.70
2019-03-11T08:49:47.246Z,3.80
2019-03-11T08:52:16.469Z,3.70
2019-03-11T08:54:45.725Z,3.70
2019-03-11T08:57:15.024Z,3.80
2019-03-11T08:59:44.288Z,3.90
2019-03-11T09:02:13.597Z,3.90
2019-03-11T09:04:42.783Z,3.90
2019-03-11T09:07:12.135Z,4.00
2019-03-11T09:09:41.313Z,4.10
2019-03-11T09:12:10.474Z,4.10
2019-03-11T09:14:39.669Z,4.20
2019-03-11T09:17:09.013Z,4.50
2019-03-11T09:19:38.337Z,4.80
2019-03-11T09:22:07.565Z,5.20
2019-03-11T09:24:36.893Z,5.50
2019-03-11T09:27:06.199Z,5.50
2019-03-11T09:29:35.528Z,5.40
2019-03-11T09:32:04.986Z,5.30
2019-03-11T09:34:34.387Z,5.00
2019-03-11T09:37:03.657Z,4.90
2019-03-11T09:39:32.985Z,4.80
2019-03-11T09:42:02.232Z,4.80
2019-03-11T09:44:31.526Z,4.80
2019-03-11T09:47:00.771Z,4.90
2019-03-11T09:49:30.079Z,5.00
2019-03-11T09:51:59.336Z,5.00
2019-03-11T09:54:28.494Z,5.00
2019-03-11T09:56:57.883Z,5.00
2019-03-11T09:59:27.121Z,5.00
2019-03-11T10:01:56.372Z,5.00
2019-03-11T10:04:26.210Z,5.10
2019-03-11T10:06:55.539Z,5.40
2019-03-11T10:09:24.937Z,5.60
2019-03-11T10:11:54.337Z,5.50
2019-03-11T10:14:24.058Z,5.50
2019-03-11T10:16:53.369Z,5.40
2019-03-11T10:19:22.522Z,5.40
2019-03-11T10:21:51.708Z,5.30
2019-03-11T10:24:20.860Z,5.40
2019-03-11T10:26:50.213Z,5.50
2019-03-11T10:29:19.433Z,5.70
2019-03-11T10:31:48.611Z,5.70
2019-03-11T10:34:17.847Z,5.70
2019-03-11T10:36:47.109Z,5.70
2019-03-11T10:39:16.541Z,5.70
2019-03-11T10:41:45.714Z,5.70
2019-03-11T10:44:14.872Z,5.90
2019-03-11T10:46:45.098Z,6.00
2019-03-11T10:49:14.415Z,6.00
2019-03-11T10:51:43.616Z,5.70
2019-03-11T10:54:12.850Z,5.60
2019-03-11T10:56:42.154Z,5.50
2019-03-11T10:59:11.355Z,5.40
2019-03-11T11:01:40.576Z,5.40
2019-03-11T11:04:09.759Z,5.30
2019-03-11T11:06:38.908Z,5.30
2019-03-11T11:09:08.706Z,5.40
2019-03-11T11:11:37.939Z,5.50
2019-03-11T11:14:07.272Z,5.60
2019-03-11T11:16:36.440Z,5.60
2019-03-11T11:19:05.691Z,5.60
2019-03-11T11:21:34.843Z,5.60
2019-03-11T11:24:04.106Z,5.50
2019-03-11T11:26:33.257Z,5.50
2019-03-11T11:29:02.517Z,5.50
2019-03-11T11:31:31.774Z,5.50
2019-03-11T11:34:00.972Z,5.70
2019-03-11T11:36:30.154Z,5.80
2019-03-11T11:38:59.419Z,5.90
2019-03-11T11:41:28.751Z,6.00
2019-03-11T11:43:58.015Z,6.00
2019-03-11T11:46:27.184Z,5.90
2019-03-11T11:48:56.355Z,5.90
2019-03-11T11:51:25.589Z,6.00
2019-03-11T11:53:54.763Z,6.00
2019-03-11T11:56:23.932Z,6.10
2019-03-11T11:58:53.281Z,6.20
2019-03-11T12:01:22.503Z,6.40
2019-03-11T12:03:51.751Z,6.50
2019-03-11T12:06:20.923Z,6.50
2019-03-11T12:08:50.211Z,6.40
2019-03-11T12:11:19.358Z,6.40
2019-03-11T12:13:49.661Z,6.30
2019-03-11T12:16:18.875Z,6.50
2019-03-11T12:18:48.107Z,6.60
2019-03-11T12:21:17.363Z,6.80
2019-03-11T12:23:46.945Z,6.90
2019-03-11T12:26:16.345Z,6.90
2019-03-11T12:28:45.579Z,6.80
2019-03-11T12:31:14.832Z,6.70
2019-03-11T12:33:44.056Z,6.70
2019-03-11T12:36:13.352Z,6.60
2019-03-11T12:38:42.661Z,6.60
2019-03-11T12:41:11.932Z,6.50
2019-03-11T12:43:42.431Z,6.60
2019-03-11T12:46:11.700Z,6.60
2019-03-11T12:48:40.924Z,6.60
2019-03-11T12:51:10.180Z,6.60
2019-03-11T12:53:39.439Z,6.60
2019-03-11T12:56:08.747Z,6.50
2019-03-11T12:58:41.892Z,6.50
2019-03-11T13:01:08.979Z,6.50
2019-03-11T13:03:38.210Z,6.50
2019-03-11T13:06:07.484Z,6.50
2019-03-11T13:08:36.754Z,6.60
2019-03-11T13:11:05.968Z,6.70
2019-03-11T13:13:35.251Z,6.80
2019-03-11T13:16:04.532Z,6.80
2019-03-11T13:18:38.831Z,6.70
2019-03-11T13:21:18.055Z,6.40
2019-03-11T13:23:47.283Z,6.20
2019-03-11T13:26:16.555Z,6.00
2019-03-11T13:28:45.890Z,5.70
2019-03-11T13:31:15.047Z,5.50
2019-03-11T13:33:44.303Z,5.40
2019-03-11T13:36:13.562Z,5.50
2019-03-11T13:38:42.883Z,5.70
2019-03-11T13:41:12.106Z,5.90
2019-03-11T13:43:41.281Z,5.90
2019-03-11T13:46:10.513Z,6.00
2019-03-11T13:48:39.767Z,6.10
2019-03-11T13:51:08.929Z,6.20
2019-03-11T13:53:38.393Z,6.40
2019-03-11T13:56:07.609Z,6.60
2019-03-11T13:58:37.068Z,6.70
2019-03-11T14:01:06.288Z,6.60
2019-03-11T14:03:35.594Z,6.40
2019-03-11T14:06:04.869Z,6.40
2019-03-11T14:08:34.116Z,6.40
2019-03-11T14:11:03.371Z,6.30
2019-03-11T14:13:32.632Z,6.30
2019-03-11T14:16:01.859Z,6.20
2019-03-11T14:18:31.127Z,6.10
2019-03-11T14:21:00.387Z,6.10
2019-03-11T14:23:29.652Z,6.10
2019-03-11T14:25:58.815Z,6.00
2019-03-11T14:28:28.150Z,5.90
2019-03-11T14:30:57.339Z,6.00
2019-03-11T14:33:26.479Z,6.10
2019-03-11T14:35:55.760Z,6.30
2019-03-11T14:38:24.983Z,6.50
2019-03-11T14:40:54.171Z,6.60
2019-03-11T14:43:23.396Z,6.60
2019-03-11T14:45:52.595Z,6.50
2019-03-11T14:48:21.827Z,6.50
2019-03-11T14:50:51.008Z,6.60
2019-03-11T14:53:20.244Z,6.70
2019-03-11T14:55:49.482Z,6.80
2019-03-11T14:58:28.742Z,6.80
2019-03-11T15:00:49.542Z,6.80
2019-03-11T15:03:18.682Z,6.70
2019-03-11T15:05:47.945Z,6.70
2019-03-11T15:08:17.250Z,6.70
2019-03-11T15:10:46.433Z,6.60
2019-03-11T15:13:15.652Z,6.60
2019-03-11T15:15:45.211Z,6.70
2019-03-11T15:18:14.444Z,6.80
2019-03-11T15:20:43.878Z,6.80
2019-03-11T15:23:20.429Z,6.70
2019-03-11T15:25:44.144Z,6.80
2019-03-11T15:28:13.368Z,6.80
2019-03-11T15:30:42.512Z,6.70
2019-03-11T15:33:11.799Z,6.90
2019-03-11T15:35:41.134Z,6.70
2019-03-11T15:38:10.333Z,6.50
2019-03-11T15:40:39.483Z,6.40
2019-03-11T15:43:09.040Z,6.40
2019-03-11T15:45:39.212Z,6.50
2019-03-11T15:48:08.620Z,6.60
2019-03-11T15:50:37.951Z,6.60
2019-03-11T15:53:07.127Z,6.60
2019-03-11T15:55:36.384Z,6.60
2019-03-11T15:58:05.568Z,6.50
2019-03-11T16:00:34.726Z,6.50
2019-03-11T16:03:04.203Z,6.40
2019-03-11T16:05:33.364Z,6.40
2019-03-11T16:08:02.535Z,6.40
2019-03-11T16:10:31.835Z,6.40
2019-03-11T16:13:01.167Z,6.40
2019-03-11T16:15:30.401Z,6.30
2019-03-11T16:17:59.740Z,6.30
2019-03-11T16:20:28.970Z,6.30
2019-03-11T16:22:58.169Z,6.30
2019-03-11T16:25:27.475Z,6.20
2019-03-11T16:27:56.665Z,6.10
2019-03-11T16:30:25.948Z,6.00
2019-03-11T16:33:00.793Z,5.90
2019-03-11T16:35:26.804Z,5.90
2019-03-11T16:37:56.155Z,5.90
2019-03-11T16:40:25.495Z,5.90
2019-03-11T16:42:54.811Z,5.90
2019-03-11T16:45:24.349Z,5.80
2019-03-11T16:47:53.581Z,5.70
2019-03-11T16:50:23.267Z,5.70
2019-03-11T16:52:52.487Z,5.60
2019-03-11T16:55:24.395Z,5.60
2019-03-11T16:57:53.958Z,5.50
2019-03-11T17:00:27.195Z,5.50
2019-03-11T17:02:56.339Z,5.40
2019-03-11T17:05:25.626Z,5.30
2019-03-11T17:07:54.911Z,5.20
2019-03-11T17:10:24.167Z,5.20
2019-03-11T17:12:53.433Z,5.20
2019-03-11T17:15:22.692Z,5.10
2019-03-11T17:17:51.847Z,5.10
2019-03-11T17:20:21.121Z,5.10
2019-03-11T17:22:50.353Z,5.10
2019-03-11T17:25:19.538Z,5.10
2019-03-11T17:27:48.798Z,5.00
2019-03-11T17:30:18.103Z,4.90
2019-03-11T17:32:47.567Z,4.90
2019-03-11T17:35:17.191Z,4.90
2019-03-11T17:37:46.607Z,4.80
2019-03-11T17:40:16.827Z,4.80
2019-03-11T17:42:46.148Z,4.70
2019-03-11T17:45:16.386Z,4.70
2019-03-11T17:47:45.569Z,4.80
2019-03-11T17:50:15.576Z,4.70
2019-03-11T17:52:45.031Z,4.70
2019-03-11T17:55:14.693Z,4.70
2019-03-11T17:57:43.888Z,4.70
2019-03-11T18:00:19.071Z,4.70
2019-03-11T18:02:48.523Z,4.70
2019-03-11T18:05:18.684Z,4.70
2019-03-11T18:07:47.940Z,4.70
2019-03-11T18:10:17.198Z,4.60
2019-03-11T18:12:46.371Z,4.60
2019-03-11T18:15:15.813Z,4.60
2019-03-11T18:17:45.271Z,4.60
2019-03-11T18:20:14.748Z,4.60
2019-03-11T18:22:44.153Z,4.50
2019-03-11T18:25:14.453Z,4.50
2019-03-11T18:27:43.812Z,4.50
2019-03-11T18:30:16.138Z,4.50
2019-03-11T18:32:45.461Z,4.40
2019-03-11T18:35:14.887Z,4.50
2019-03-11T18:37:44.128Z,4.40
2019-03-11T18:40:13.659Z,4.50
2019-03-11T18:42:43.018Z,4.50
2019-03-11T18:45:12.859Z,4.50
2019-03-11T18:47:42.143Z,4.50
2019-03-11T18:50:12.507Z,4.50
2019-03-11T18:52:41.866Z,4.50
2019-03-11T18:55:11.427Z,4.50
2019-03-11T18:57:40.732Z,4.50
2019-03-11T19:00:11.603Z,4.50
2019-03-11T19:02:40.905Z,4.40
2019-03-11T19:05:11.182Z,4.40
2019-03-11T19:07:40.549Z,4.40
2019-03-11T19:10:10.345Z,4.40
2019-03-11T19:12:39.591Z,4.40
2019-03-11T19:15:10.799Z,4.40
2019-03-11T19:17:39.960Z,4.40
2019-03-11T19:20:11.312Z,4.40
2019-03-11T19:22:40.792Z,4.40
2019-03-11T19:25:10.924Z,4.40
2019-03-11T19:27:40.310Z,4.40
2019-03-11T19:30:13.488Z,4.40
2019-03-11T19:32:42.697Z,4.40
2019-03-11T19:35:12.082Z,4.40
2019-03-11T19:37:41.380Z,4.30
2019-03-11T19:40:11.472Z,4.40
2019-03-11T19:42:40.696Z,4.30
2019-03-11T19:45:10.910Z,4.30
2019-03-11T19:47:40.225Z,4.30
2019-03-11T19:50:10.535Z,4.30
2019-03-11T19:52:39.875Z,4.30
2019-03-11T19:55:09.212Z,4.20
2019-03-11T19:57:38.515Z,4.20
2019-03-11T20:00:10.360Z,4.20
2019-03-11T20:02:39.633Z,4.20
2019-03-11T20:05:09.926Z,4.30
2019-03-11T20:07:39.195Z,4.30
2019-03-11T20:10:09.736Z,4.30
2019-03-11T20:12:38.976Z,4.30
2019-03-11T20:15:08.633Z,4.30
2019-03-11T20:17:37.969Z,4.30
2019-03-11T20:20:08.743Z,4.30
2019-03-11T20:22:37.948Z,4.20
2019-03-11T20:25:09.700Z,4.20
2019-03-11T20:27:39.014Z,4.20
2019-03-11T20:30:11.536Z,4.20
2019-03-11T20:32:40.897Z,4.10
2019-03-11T20:35:10.145Z,4.10
2019-03-11T20:37:39.576Z,4.00
2019-03-11T20:40:09.217Z,4.00
2019-03-11T20:42:38.624Z,4.10
2019-03-11T20:45:08.814Z,4.10
2019-03-11T20:47:38.280Z,4.10
2019-03-11T20:50:08.725Z,4.10
2019-03-11T20:52:38.329Z,4.00
2019-03-11T20:55:08.793Z,4.00
2019-03-11T20:57:38.176Z,4.00
2019-03-11T21:00:10.873Z,4.00
2019-03-11T21:02:40.240Z,4.00
2019-03-11T21:05:09.811Z,4.00
2019-03-11T21:07:39.025Z,3.90
2019-03-11T21:10:10.378Z,3.90
2019-03-11T21:12:39.694Z,3.90
2019-03-11T21:15:09.443Z,3.90
2019-03-11T21:17:38.731Z,3.80
2019-03-11T21:20:09.640Z,3.80
2019-03-11T21:22:39.030Z,3.80
2019-03-11T21:25:10.478Z,3.80
2019-03-11T21:27:39.930Z,3.80
2019-03-11T21:30:11.934Z,3.80
2019-03-11T21:32:41.307Z,3.80
2019-03-11T21:35:10.654Z,3.80
2019-03-11T21:37:40.049Z,3.80
2019-03-11T21:40:11.277Z,3.90
2019-03-11T21:42:40.737Z,3.90
2019-03-11T21:45:11.292Z,4.00
2019-03-11T21:47:40.578Z,4.00
2019-03-11T21:50:12.357Z,4.00
2019-03-11T21:52:41.647Z,4.10
2019-03-11T21:55:10.908Z,4.10
2019-03-11T21:57:40.256Z,4.10
2019-03-11T22:00:12.135Z,4.10
2019-03-11T22:02:41.425Z,4.10
2019-03-11T22:05:10.797Z,4.10
2019-03-11T22:07:39.953Z,4.00
2019-03-11T22:10:10.095Z,3.90
2019-03-11T22:12:39.296Z,3.90
2019-03-11T22:15:09.688Z,3.80
2019-03-11T22:17:38.848Z,3.80
2019-03-11T22:20:09.547Z,3.70
2019-03-11T22:22:38.872Z,3.60
2019-03-11T22:25:09.174Z,3.60
2019-03-11T22:27:38.392Z,3.50
2019-03-11T22:30:11.348Z,3.50
2019-03-11T22:32:40.508Z,3.50
2019-03-11T22:35:12.952Z,3.50
2019-03-11T22:37:40.843Z,3.50
2019-03-11T22:40:10.571Z,3.50
2019-03-11T22:42:39.794Z,3.60
2019-03-11T22:45:10.435Z,3.70
2019-03-11T22:47:39.904Z,3.70
2019-03-11T22:50:09.512Z,3.80
2019-03-11T22:52:38.920Z,3.80
2019-03-11T22:55:08.200Z,3.80
2019-03-11T22:57:37.451Z,3.90
2019-03-11T23:00:11.610Z,3.90
2019-03-11T23:02:40.796Z,4.00
2019-03-11T23:05:10.240Z,4.00
2019-03-11T23:07:39.484Z,4.00
2019-03-11T23:10:08.679Z,4.00
2019-03-11T23:12:38.048Z,4.00
2019-03-11T23:15:07.354Z,4.00
2019-03-11T23:17:36.626Z,4.10
2019-03-11T23:20:06.590Z,4.10
2019-03-11T23:22:36.056Z,4.10
2019-03-11T23:25:05.622Z,4.20
2019-03-11T23:27:35.364Z,4.20
2019-03-11T23:30:05.938Z,4.20
2019-03-11T23:32:35.416Z,4.20
2019-03-11T23:35:04.744Z,4.20
2019-03-11T23:37:34.024Z,4.30
2019-03-11T23:40:03.309Z,4.30
2019-03-11T23:42:32.575Z,4.30
2019-03-11T23:45:01.931Z,4.30
2019-03-11T23:47:31.210Z,4.30
2019-03-11T23:50:00.446Z,4.30
2019-03-11T23:52:29.696Z,4.40
2019-03-11T23:54:58.920Z,4.40
2019-03-11T23:57:28.108Z,4.40
2019-03-11T23:59:57.352Z,4.40
